HomeShort term forecast

Short term forecast

Graphical weather forecast for the next 48 hours for Montreal:
Short term forecast
This weather forecast is automatically refreshed every 3 hours.

Hourly Experimental Forecast for the next 48 hours ®

Overall summary: Clear throughout the day.

 Date & Hour   Temp   Feel   Baro   Hum   Speed & Bearing   Wind Gust   Precip.%   Precip.   Visibility   Cloud cover   Conditions 
 16/02/2020 - 21:00  -1.6°C  -6.5°C  1015.2 hPa  83%  15.5 km/h   38.7 km/h  3%  --  16.1km  54%  Partly Cloudy 
 16/02/2020 - 22:00  -2.2°C  -7.0°C  1015.5 hPa  86%  14.8 km/h   34.5 km/h  4%  0.04 mm/h  14.9km  74%  Mostly Cloudy 
 16/02/2020 - 23:00  -2.8°C  -7.6°C  1016.2 hPa  87%  13.7 km/h   30.4 km/h  2%  0.01 mm/h  15.3km  74%  Mostly Cloudy 
 17/02/2020 - 00:00  -3.3°C  -8.3°C  1016.7 hPa  88%  13.9 km/h   27.9 km/h  3%  0.03 mm/h  14.8km  64%  Mostly Cloudy 
 17/02/2020 - 01:00  -4.3°C  -9.4°C  1017.4 hPa  88%  13.6 km/h   24.4 km/h  4%  0.09 mm/h  15.7km  63%  Mostly Cloudy 
 17/02/2020 - 02:00  -5.8°C  -10.9°C  1018.3 hPa  85%  12.6 km/h   25.2 km/h  2%  0.03 mm/h  16.1km  68%  Mostly Cloudy 
 17/02/2020 - 03:00  -7.0°C  -12.1°C  1019.2 hPa  84%  11.5 km/h   22.6 km/h  2%  0.06 mm/h  16.1km  69%  Mostly Cloudy 
 17/02/2020 - 04:00  -8.1°C  -13.3°C  1020.3 hPa  84%  11.0 km/h   21.2 km/h  2%  0.04 mm/h  16.1km  62%  Mostly Cloudy 
 17/02/2020 - 05:00  -9.5°C  -14.7°C  1021.4 hPa  83%  10.0 km/h   20.0 km/h  0%  --  16.1km  51%  Partly Cloudy 
 17/02/2020 - 06:00  -10.8°C  -16.1°C  1022.8 hPa  82%  9.8 km/h   17.7 km/h  0%  --  15.4km  47%  Partly Cloudy 
 17/02/2020 - 07:00  -11.8°C  -17.0°C  1024.1 hPa  80%  8.9 km/h   18.2 km/h  0%  --  16.1km  44%  Partly Cloudy 
 17/02/2020 - 08:00  -11.9°C  -16.8°C  1025.4 hPa  77%  8.3 km/h   14.7 km/h  2%  0.04 mm/h  16.1km  37%  Partly Cloudy 
 17/02/2020 - 09:00  -11.2°C  -15.4°C  1026.6 hPa  74%  7.0 km/h   11.9 km/h  0%  --  16.1km  27%  Clear 
 17/02/2020 - 10:00  -9.6°C  -13.9°C  1027.6 hPa  72%  7.7 km/h   9.3 km/h  2%  0.01 mm/h  16.1km  29%  Clear 
 17/02/2020 - 11:00  -9.1°C  -13.3°C  1028.0 hPa  69%  7.7 km/h   8.6 km/h  0%  --  16.1km  23%  Clear 
 17/02/2020 - 12:00  -8.6°C  -12.7°C  1028.1 hPa  65%  7.7 km/h   8.6 km/h  0%  --  16.1km  19%  Clear 
 17/02/2020 - 13:00  -7.8°C  -11.8°C  1028.3 hPa  61%  7.8 km/h   9.0 km/h  0%  --  16.1km  19%  Clear 
 17/02/2020 - 14:00  -7.2°C  -11.1°C  1028.9 hPa  59%  7.8 km/h   10.1 km/h  0%  --  16.1km  25%  Clear 
 17/02/2020 - 15:00  -6.8°C  -10.7°C  1029.5 hPa  59%  7.9 km/h   11.5 km/h  0%  --  16.1km  31%  Partly Cloudy 
 17/02/2020 - 16:00  -7.3°C  -11.2°C  1030.2 hPa  61%  7.8 km/h   11.9 km/h  1%  0.01 mm/h  16.1km  34%  Partly Cloudy 
 17/02/2020 - 17:00  -8.9°C  -12.8°C  1030.7 hPa  66%  7.1 km/h   10.2 km/h  1%  0.01 mm/h  16.1km  29%  Clear 
 17/02/2020 - 18:00  -10.6°C  -14.3°C  1031.0 hPa  72%  6.0 km/h   7.4 km/h  1%  0.01 mm/h  16.1km  19%  Clear 
 17/02/2020 - 19:00  -12.3°C  -15.7°C  1031.3 hPa  77%  5.3 km/h   5.6 km/h  1%  0.01 mm/h  16.1km  12%  Clear 
 17/02/2020 - 20:00  -13.4°C  -16.7°C  1031.5 hPa  80%  5.0 km/h   5.4 km/h  0%  --  16.1km  15%  Clear 
 17/02/2020 - 21:00  -14.2°C  -17.6°C  1031.6 hPa  82%  5.0 km/h   6.0 km/h  0%  --  15.8km  23%  Clear 
 17/02/2020 - 22:00  -14.8°C  -18.6°C  1031.5 hPa  84%  5.4 km/h   7.1 km/h  1%  0.01 mm/h  13.7km  33%  Partly Cloudy 
 17/02/2020 - 23:00  -15.5°C  -19.9°C  1031.5 hPa  86%  6.1 km/h   8.5 km/h  0%  --  12.5km  43%  Partly Cloudy 
 18/02/2020 - 00:00  -16.1°C  -21.1°C  1031.1 hPa  87%  7.0 km/h   10.1 km/h  0%  --  11.9km  59%  Partly Cloudy 
 18/02/2020 - 01:00  -16.9°C  -22.7°C  1030.8 hPa  91%  8.2 km/h   11.7 km/h  0%  --  12.5km  73%  Mostly Cloudy 
 18/02/2020 - 02:00  -16.3°C  -22.6°C  1030.0 hPa  87%  9.8 km/h   13.6 km/h  0%  --  16.0km  82%  Mostly Cloudy 
 18/02/2020 - 03:00  -14.3°C  -21.0°C  1028.8 hPa  78%  11.6 km/h   15.8 km/h  0%  --  16.1km  92%  Overcast 
 18/02/2020 - 04:00  -13.1°C  -20.1°C  1027.9 hPa  75%  13.4 km/h   18.1 km/h  0%  --  16.1km  100%  Overcast 
 18/02/2020 - 05:00  -12.1°C  -19.2°C  1026.8 hPa  74%  14.7 km/h   19.4 km/h  1%  0.01 mm/h  16.1km  100%  Overcast 
 18/02/2020 - 06:00  -11.1°C  -18.3°C  1025.5 hPa  74%  15.7 km/h   20.6 km/h  3%  0.03 mm/h  13.1km  100%  Overcast 
 18/02/2020 - 07:00  -10.1°C  -17.2°C  1024.0 hPa  75%  16.8 km/h   24.6 km/h  5%  0.08 mm/h  7.0km  100%  Overcast 
 18/02/2020 - 08:00  -8.9°C  -16.0°C  1022.5 hPa  80%  18.1 km/h   34.2 km/h  10%  0.31 mm/h  3.3km  100%  Overcast 
 18/02/2020 - 09:00  -7.4°C  -14.4°C  1021.1 hPa  84%  19.4 km/h   46.3 km/h  24%  0.94 mm/h  1.1km  100%  Foggy 
 18/02/2020 - 10:00  -5.9°C  -12.8°C  1019.4 hPa  86%  21.2 km/h   55.0 km/h  34%  1.54 mm/h  1.1km  100%  Possible Light Snow 
 18/02/2020 - 11:00  -4.3°C  -11.3°C  1017.1 hPa  85%  23.9 km/h   56.9 km/h  32%  1.48 mm/h  4.3km  100%  Possible Light Snow 
 18/02/2020 - 12:00  -2.9°C  -9.8°C  1014.5 hPa  82%  27.0 km/h   55.5 km/h  30%  1.20 mm/h  9.2km  100%  Possible Light Snow 
 18/02/2020 - 13:00  -1.5°C  -8.3°C  1012.3 hPa  81%  28.9 km/h   54.9 km/h  33%  1.10 mm/h  13.0km  100%  Possible Light Snow 
 18/02/2020 - 14:00  -0.3°C  -6.7°C  1010.5 hPa  82%  28.7 km/h   57.4 km/h  34%  1.11 mm/h  15.5km  100%  Possible Light Snow 
 18/02/2020 - 15:00  0.8°C  -5.2°C  1009.1 hPa  83%  27.3 km/h   61.2 km/h  50%  1.12 mm/h  16.1km  100%  Possible Light Snow 
 18/02/2020 - 16:00  1.7°C  -3.9°C  1008.3 hPa  83%  26.2 km/h   63.7 km/h  62%  1.06 mm/h  16.1km  100%  Possible Light Rain and Windy 
 18/02/2020 - 17:00  2.2°C  -3.1°C  1008.2 hPa  82%  25.9 km/h   63.4 km/h  58%  0.86 mm/h  16.1km  100%  Possible Light Rain and Windy 
 18/02/2020 - 18:00  2.5°C  -2.8°C  1008.8 hPa  81%  25.6 km/h   61.6 km/h  48%  0.64 mm/h  16.1km  100%  Possible Light Rain 
 18/02/2020 - 19:00  2.2°C  -3.1°C  1009.5 hPa  82%  25.1 km/h   59.5 km/h  36%  0.44 mm/h  16.1km  99%  Possible Light Snow 
 18/02/2020 - 20:00  1.6°C  -3.9°C  1010.5 hPa  83%  25.2 km/h   57.8 km/h  23%  0.22 mm/h  16.1km  93%  Overcast 
Test

 

Past weather and reports

Past weatherFind in this section the past weather conditions, weather archive, graphics, reports and statistics.

Current conditions

Current weather condition for MontrealAll you need to know about the current weather conditions for Montreal. Weather data is updated every 10 minutes.

Weather forecast

Current Montreal weatherSince 2004, celinium.com website has provided accurate weather forecast for Montreal's island.